Pagrindinis puslapis
METAR-TAF:

METAR-TAF

Oro uostai :

La Pasas, Bolivija

platuma: 16-31S, ilguma: 068-11W, Aukštis: 4058 m

Dabartinis oras

Ataskaita buvo paskelbta 42 minutes, ne 04:00 UTC
Vėjas 4 kt iš Pietų/Pietvakarių
Temperatūra 5°C
Drėgmė 14%
Slėgis 1035 hPa
Matomumas 10 km arba daugiau

METAR: SLLP 290400Z 21004KT 9999 NSC 05/M20 Q1035

Laikas: 00:42 (04:42 UTC)

Prognozė

Ataskaita buvo paskelbta 6 valandos ir 42 minutes, ne 22:00 UTC
Prognozė galioja nuo 29 metu 00 UTC su 29 metu 24 UTC
Vėjas 5 kt iš Rytų
Matomumas 10 km arba daugiau
Išsisklaidę debesys ne aukštis 1200 ft
Išsisklaidę debesys ne aukštis 7000 ft
Laikinai
nuo 29 metu 07 UTC su 29 metu 10 UTC
Matomumas: 4000 m
Mažai debesys ne aukštis 200 ft
Rūkas kaimynystėje
Tapsmas
nuo 29 metu 12 UTC su 29 metu 15 UTC
Vėjas 10 kt iš Vakarų/Pietvakarių
Išsisklaidę debesys ne aukštis 1700 ft
Išsisklaidę debesys ne aukštis 7000 ft

TAF: SLLP 282200Z 2900/2924 08005KT 9999 SCT012 SCT070 TX19/2920Z TN00 /2910Z TEMPO 2907/2910 4000E VCFG FEW002 BECMG 2912/2915 25010KT SCT017 SCT070

Orai ataskaitas ir orų prognozės (METAR, TAF).

turimą stotys yra geltonos ir raudonos taškus žemėlapyje.

Perkelti pele per norėdami pamatyti stoties vardą.

Tada spustelėkite, norėdami matyti oro stebėjimo ir prognozės.

Norėdami pakeisti žemėlapį: spustelėkite ant žalios mygtukų su juodo kryžiaus žemyn,; žalią mygtuką su brūkšneliu, jei norite nutolinti; arba žalių rodyklių gretimoms žemėlapius.


METAR-TAF: